sensor_id;sensor_type;location;lat;lon;timestamp;pressure;altitude;pressure_sealevel;temperature;humidity
54666;BME280;40566;50.006;36.180;2022-09-09T00:03:27;100239.94;;;10.61;60.58
54666;BME280;40566;50.006;36.180;2022-09-09T00:14:03;100248.75;;;10.50;61.02
54666;BME280;40566;50.006;36.180;2022-09-09T00:19:20;100259.09;;;10.50;60.73
54666;BME280;40566;50.006;36.180;2022-09-09T00:24:34;100260.13;;;10.42;60.87
54666;BME280;40566;50.006;36.180;2022-09-09T00:35:01;100269.84;;;10.27;61.20
54666;BME280;40566;50.006;36.180;2022-09-09T00:40:23;100267.31;;;10.24;61.18
54666;BME280;40566;50.006;36.180;2022-09-09T00:55:49;100267.47;;;10.15;61.36
54666;BME280;40566;50.006;36.180;2022-09-09T01:01:01;100261.53;;;10.10;61.17
54666;BME280;40566;50.006;36.180;2022-09-09T01:06:16;100268.50;;;10.05;61.21
54666;BME280;40566;50.006;36.180;2022-09-09T01:11:23;100270.38;;;9.97;61.35
54666;BME280;40566;50.006;36.180;2022-09-09T01:16:26;100292.91;;;9.88;61.44
54666;BME280;40566;50.006;36.180;2022-09-09T01:21:49;100286.19;;;9.78;61.54
54666;BME280;40566;50.006;36.180;2022-09-09T01:26:54;100287.16;;;9.69;61.86
54666;BME280;40566;50.006;36.180;2022-09-09T01:32:01;100303.56;;;9.68;61.79
54666;BME280;40566;50.006;36.180;2022-09-09T01:37:08;100286.38;;;9.66;61.94
54666;BME280;40566;50.006;36.180;2022-09-09T01:42:13;100288.13;;;9.64;61.96
54666;BME280;40566;50.006;36.180;2022-09-09T01:47:15;100312.25;;;9.63;61.75
54666;BME280;40566;50.006;36.180;2022-09-09T01:52:15;100314.09;;;9.55;61.92
54666;BME280;40566;50.006;36.180;2022-09-09T01:57:41;100314.19;;;9.48;61.93
54666;BME280;40566;50.006;36.180;2022-09-09T02:03:00;100311.09;;;9.22;62.33
54666;BME280;40566;50.006;36.180;2022-09-09T02:08:38;100302.69;;;9.04;62.37
54666;BME280;40566;50.006;36.180;2022-09-09T02:13:32;100316.16;;;9.28;62.15
54666;BME280;40566;50.006;36.180;2022-09-09T02:18:47;100315.31;;;9.29;62.04
54666;BME280;40566;50.006;36.180;2022-09-09T02:23:50;100323.13;;;9.21;62.25
54666;BME280;40566;50.006;36.180;2022-09-09T02:28:54;100328.31;;;9.21;62.34
54666;BME280;40566;50.006;36.180;2022-09-09T02:33:59;100331.81;;;9.16;62.44
54666;BME280;40566;50.006;36.180;2022-09-09T02:39:01;100333.63;;;9.10;62.49
54666;BME280;40566;50.006;36.180;2022-09-09T02:44:16;100320.72;;;9.09;62.40
54666;BME280;40566;50.006;36.180;2022-09-09T02:54:38;100338.91;;;8.98;62.61
54666;BME280;40566;50.006;36.180;2022-09-09T02:59:39;100337.19;;;8.99;62.65
54666;BME280;40566;50.006;36.180;2022-09-09T03:04:40;100350.09;;;8.97;62.64
54666;BME280;40566;50.006;36.180;2022-09-09T03:09:44;100345.06;;;8.86;62.72
54666;BME280;40566;50.006;36.180;2022-09-09T03:14:45;100351.25;;;8.71;63.01
54666;BME280;40566;50.006;36.180;2022-09-09T03:19:47;100354.66;;;8.73;63.10
54666;BME280;40566;50.006;36.180;2022-09-09T03:24:49;100367.50;;;8.77;63.02
54666;BME280;40566;50.006;36.180;2022-09-09T03:29:51;100383.00;;;8.77;63.09
54666;BME280;40566;50.006;36.180;2022-09-09T03:34:52;100387.28;;;8.78;63.10
54666;BME280;40566;50.006;36.180;2022-09-09T03:39:53;100387.28;;;8.79;63.25
54666;BME280;40566;50.006;36.180;2022-09-09T03:44:54;100386.41;;;8.80;63.17
54666;BME280;40566;50.006;36.180;2022-09-09T03:49:58;100389.84;;;8.81;63.43
54666;BME280;40566;50.006;36.180;2022-09-09T03:54:58;100402.69;;;8.85;63.36
54666;BME280;40566;50.006;36.180;2022-09-09T03:59:59;100411.28;;;8.86;63.74
54666;BME280;40566;50.006;36.180;2022-09-09T04:05:01;100410.38;;;8.91;63.58
54666;BME280;40566;50.006;36.180;2022-09-09T04:10:02;100418.88;;;8.98;63.55
54666;BME280;40566;50.006;36.180;2022-09-09T04:15:02;100423.97;;;9.06;63.66
54666;BME280;40566;50.006;36.180;2022-09-09T04:20:03;100423.94;;;9.09;63.50
54666;BME280;40566;50.006;36.180;2022-09-09T04:25:05;100418.72;;;9.15;63.65
54666;BME280;40566;50.006;36.180;2022-09-09T04:30:06;100425.53;;;9.21;63.62
54666;BME280;40566;50.006;36.180;2022-09-09T04:35:07;100431.47;;;9.29;63.85
54666;BME280;40566;50.006;36.180;2022-09-09T04:40:09;100421.09;;;9.32;63.67
54666;BME280;40566;50.006;36.180;2022-09-09T04:45:10;100429.66;;;9.37;63.69
54666;BME280;40566;50.006;36.180;2022-09-09T04:50:11;100428.72;;;9.44;63.53
54666;BME280;40566;50.006;36.180;2022-09-09T04:55:12;100432.97;;;9.48;63.61
54666;BME280;40566;50.006;36.180;2022-09-09T05:00:13;100425.97;;;9.58;63.44
54666;BME280;40566;50.006;36.180;2022-09-09T05:05:14;100424.19;;;9.62;63.61
54666;BME280;40566;50.006;36.180;2022-09-09T05:10:15;100434.44;;;9.68;63.45
54666;BME280;40566;50.006;36.180;2022-09-09T05:15:18;100430.00;;;9.78;63.43
54666;BME280;40566;50.006;36.180;2022-09-09T05:20:19;100429.84;;;9.90;63.55
54666;BME280;40566;50.006;36.180;2022-09-09T05:25:20;100427.97;;;10.00;63.27
54666;BME280;40566;50.006;36.180;2022-09-09T05:30:22;100426.97;;;10.10;63.29
54666;BME280;40566;50.006;36.180;2022-09-09T05:35:26;100431.84;;;10.28;62.91
54666;BME280;40566;50.006;36.180;2022-09-09T05:40:27;100448.91;;;10.43;62.99
54666;BME280;40566;50.006;36.180;2022-09-09T05:45:29;100444.38;;;10.56;62.65
54666;BME280;40566;50.006;36.180;2022-09-09T05:50:30;100452.81;;;10.67;63.05
54666;BME280;40566;50.006;36.180;2022-09-09T05:55:30;100464.59;;;10.84;62.83
54666;BME280;40566;50.006;36.180;2022-09-09T06:00:31;100464.44;;;10.93;62.52
54666;BME280;40566;50.006;36.180;2022-09-09T06:05:32;100457.38;;;11.01;62.76
54666;BME280;40566;50.006;36.180;2022-09-09T06:10:34;100459.69;;;11.17;62.03
54666;BME280;40566;50.006;36.180;2022-09-09T06:15:35;100457.78;;;11.28;62.39
54666;BME280;40566;50.006;36.180;2022-09-09T06:20:35;100461.75;;;11.44;62.16
54666;BME280;40566;50.006;36.180;2022-09-09T06:25:36;100461.44;;;11.61;61.98
54666;BME280;40566;50.006;36.180;2022-09-09T06:30:37;100461.00;;;11.83;61.49
54666;BME280;40566;50.006;36.180;2022-09-09T06:35:38;100470.13;;;12.01;60.78
54666;BME280;40566;50.006;36.180;2022-09-09T06:40:40;100478.31;;;12.21;60.09
54666;BME280;40566;50.006;36.180;2022-09-09T06:45:41;100481.41;;;12.37;59.19
54666;BME280;40566;50.006;36.180;2022-09-09T06:50:41;100488.81;;;12.53;58.68
54666;BME280;40566;50.006;36.180;2022-09-09T06:55:42;100490.97;;;12.71;58.04
54666;BME280;40566;50.006;36.180;2022-09-09T07:00:45;100488.88;;;12.85;57.73
54666;BME280;40566;50.006;36.180;2022-09-09T07:05:53;100485.72;;;13.07;56.82
54666;BME280;40566;50.006;36.180;2022-09-09T07:10:54;100505.31;;;13.20;56.62
54666;BME280;40566;50.006;36.180;2022-09-09T07:16:06;100492.72;;;13.39;55.69
54666;BME280;40566;50.006;36.180;2022-09-09T07:21:09;100494.22;;;13.46;55.26
54666;BME280;40566;50.006;36.180;2022-09-09T07:26:15;100499.00;;;13.62;54.47
54666;BME280;40566;50.006;36.180;2022-09-09T07:31:18;100507.59;;;13.64;54.12
54666;BME280;40566;50.006;36.180;2022-09-09T07:36:23;100503.91;;;13.73;53.79
54666;BME280;40566;50.006;36.180;2022-09-09T07:41:29;100506.75;;;13.95;52.94
54666;BME280;40566;50.006;36.180;2022-09-09T07:46:33;100507.41;;;14.01;52.63
54666;BME280;40566;50.006;36.180;2022-09-09T07:51:36;100509.69;;;14.12;52.35
54666;BME280;40566;50.006;36.180;2022-09-09T07:56:38;100522.94;;;14.33;52.08
54666;BME280;40566;50.006;36.180;2022-09-09T08:01:41;100534.81;;;14.41;51.56
54666;BME280;40566;50.006;36.180;2022-09-09T08:06:48;100528.59;;;14.17;51.78
54666;BME280;40566;50.006;36.180;2022-09-09T08:11:49;100545.25;;;14.12;51.85
54666;BME280;40566;50.006;36.180;2022-09-09T08:16:50;100543.03;;;13.98;51.75
54666;BME280;40566;50.006;36.180;2022-09-09T08:21:50;100553.81;;;13.85;52.10
54666;BME280;40566;50.006;36.180;2022-09-09T08:26:51;100554.94;;;13.77;51.94
54666;BME280;40566;50.006;36.180;2022-09-09T08:31:54;100537.72;;;13.73;51.76
54666;BME280;40566;50.006;36.180;2022-09-09T08:36:57;100543.03;;;13.68;51.22
54666;BME280;40566;50.006;36.180;2022-09-09T08:47:32;100507.16;;;13.81;50.19
54666;BME280;40566;50.006;36.180;2022-09-09T08:58:08;100505.50;;;14.91;47.89
54666;BME280;40566;50.006;36.180;2022-09-09T09:03:24;100502.94;;;15.15;47.38
54666;BME280;40566;50.006;36.180;2022-09-09T09:13:48;100498.94;;;15.55;46.62
54666;BME280;40566;50.006;36.180;2022-09-09T09:18:53;100517.09;;;15.81;46.33
54666;BME280;40566;50.006;36.180;2022-09-09T09:23:58;100499.50;;;16.54;44.84
54666;BME280;40566;50.006;36.180;2022-09-09T09:29:03;100501.16;;;16.57;44.78
54666;BME280;40566;50.006;36.180;2022-09-09T09:34:10;100512.94;;;16.45;44.36
54666;BME280;40566;50.006;36.180;2022-09-09T09:39:26;100496.19;;;15.83;45.61
54666;BME280;40566;50.006;36.180;2022-09-09T09:44:32;100497.59;;;15.92;45.37
54666;BME280;40566;50.006;36.180;2022-09-09T09:49:32;100512.06;;;16.22;44.27
54666;BME280;40566;50.006;36.180;2022-09-09T09:54:37;100508.84;;;16.60;43.69
54666;BME280;40566;50.006;36.180;2022-09-09T09:59:39;100506.44;;;16.55;43.52
54666;BME280;40566;50.006;36.180;2022-09-09T10:04:40;100517.19;;;16.48;43.57
54666;BME280;40566;50.006;36.180;2022-09-09T10:09:41;100513.47;;;16.53;43.28
54666;BME280;40566;50.006;36.180;2022-09-09T11:11:21;100497.72;;;19.57;35.08
54666;BME280;40566;50.006;36.180;2022-09-09T11:21:47;100488.25;;;18.50;37.47
54666;BME280;40566;50.006;36.180;2022-09-09T11:26:57;100494.28;;;17.96;38.04
54666;BME280;40566;50.006;36.180;2022-09-09T11:32:17;100497.34;;;17.48;38.74
54666;BME280;40566;50.006;36.180;2022-09-09T11:48:29;100487.28;;;17.38;38.62
54666;BME280;40566;50.006;36.180;2022-09-09T11:53:32;100495.34;;;17.34;38.51
54666;BME280;40566;50.006;36.180;2022-09-09T11:58:37;100491.72;;;17.16;38.36
54666;BME280;40566;50.006;36.180;2022-09-09T12:08:48;100490.91;;;16.95;37.92
54666;BME280;40566;50.006;36.180;2022-09-09T12:14:00;100483.00;;;17.17;37.89
54666;BME280;40566;50.006;36.180;2022-09-09T12:19:19;100486.06;;;17.45;37.83
54666;BME280;40566;50.006;36.180;2022-09-09T12:24:45;100497.47;;;17.44;37.94
54666;BME280;40566;50.006;36.180;2022-09-09T12:30:00;100498.03;;;17.32;38.13
54666;BME280;40566;50.006;36.180;2022-09-09T12:35:19;100494.69;;;17.29;38.71
54666;BME280;40566;50.006;36.180;2022-09-09T12:40:24;100486.91;;;17.07;38.94
54666;BME280;40566;50.006;36.180;2022-09-09T12:45:27;100503.25;;;16.91;39.33
54666;BME280;40566;50.006;36.180;2022-09-09T12:50:29;100513.25;;;16.80;39.24
54666;BME280;40566;50.006;36.180;2022-09-09T12:55:32;100508.97;;;16.79;39.00
54666;BME280;40566;50.006;36.180;2022-09-09T13:00:35;100514.06;;;16.82;38.78
54666;BME280;40566;50.006;36.180;2022-09-09T13:05:37;100499.28;;;16.82;38.61
54666;BME280;40566;50.006;36.180;2022-09-09T13:10:50;100491.44;;;16.82;38.11
54666;BME280;40566;50.006;36.180;2022-09-09T13:16:01;100490.00;;;16.74;38.42
54666;BME280;40566;50.006;36.180;2022-09-09T13:21:02;100504.88;;;16.72;38.71
54666;BME280;40566;50.006;36.180;2022-09-09T13:26:21;100507.06;;;16.60;38.25
54666;BME280;40566;50.006;36.180;2022-09-09T13:31:28;100509.94;;;16.54;38.75
54666;BME280;40566;50.006;36.180;2022-09-09T13:36:34;100494.56;;;16.46;38.57
54666;BME280;40566;50.006;36.180;2022-09-09T13:41:42;100500.03;;;16.40;38.20
54666;BME280;40566;50.006;36.180;2022-09-09T13:46:44;100508.47;;;16.25;38.61
54666;BME280;40566;50.006;36.180;2022-09-09T13:52:04;100495.06;;;16.12;38.39
54666;BME280;40566;50.006;36.180;2022-09-09T13:57:17;100503.25;;;16.03;38.35
54666;BME280;40566;50.006;36.180;2022-09-09T14:02:18;100515.63;;;15.98;38.64
54666;BME280;40566;50.006;36.180;2022-09-09T14:07:19;100519.88;;;16.00;38.45
54666;BME280;40566;50.006;36.180;2022-09-09T14:12:20;100516.28;;;16.03;38.50
54666;BME280;40566;50.006;36.180;2022-09-09T14:17:21;100526.78;;;16.01;38.84
54666;BME280;40566;50.006;36.180;2022-09-09T14:22:23;100514.75;;;15.97;39.13
54666;BME280;40566;50.006;36.180;2022-09-09T14:27:24;100519.28;;;15.94;39.13
54666;BME280;40566;50.006;36.180;2022-09-09T14:32:27;100521.97;;;15.91;39.16
54666;BME280;40566;50.006;36.180;2022-09-09T14:37:27;100540.25;;;15.91;39.21
54666;BME280;40566;50.006;36.180;2022-09-09T14:42:29;100532.41;;;15.91;39.43
54666;BME280;40566;50.006;36.180;2022-09-09T14:47:30;100546.44;;;15.88;39.58
54666;BME280;40566;50.006;36.180;2022-09-09T14:52:31;100553.47;;;15.86;39.52
54666;BME280;40566;50.006;36.180;2022-09-09T14:57:31;100545.88;;;15.80;39.73
54666;BME280;40566;50.006;36.180;2022-09-09T15:02:32;100541.28;;;15.61;39.97
54666;BME280;40566;50.006;36.180;2022-09-09T15:07:33;100556.59;;;15.45;40.18
54666;BME280;40566;50.006;36.180;2022-09-09T15:12:34;100554.38;;;15.35;40.55
54666;BME280;40566;50.006;36.180;2022-09-09T15:17:35;100544.31;;;15.24;41.24
54666;BME280;40566;50.006;36.180;2022-09-09T15:22:36;100561.34;;;15.09;40.88
54666;BME280;40566;50.006;36.180;2022-09-09T15:27:38;100581.69;;;14.98;41.35
54666;BME280;40566;50.006;36.180;2022-09-09T15:32:39;100587.28;;;14.85;42.11
54666;BME280;40566;50.006;36.180;2022-09-09T15:37:40;100598.91;;;14.75;42.08
54666;BME280;40566;50.006;36.180;2022-09-09T15:42:40;100601.81;;;14.64;42.03
54666;BME280;40566;50.006;36.180;2022-09-09T15:47:41;100596.97;;;14.52;42.25
54666;BME280;40566;50.006;36.180;2022-09-09T15:52:41;100604.16;;;14.44;42.45
54666;BME280;40566;50.006;36.180;2022-09-09T15:57:42;100603.66;;;14.31;42.63
54666;BME280;40566;50.006;36.180;2022-09-09T16:02:43;100607.41;;;14.22;43.76
54666;BME280;40566;50.006;36.180;2022-09-09T16:07:43;100618.97;;;14.12;43.05
54666;BME280;40566;50.006;36.180;2022-09-09T16:12:45;100616.59;;;14.04;43.26
54666;BME280;40566;50.006;36.180;2022-09-09T16:17:45;100612.56;;;13.93;43.44
54666;BME280;40566;50.006;36.180;2022-09-09T16:22:46;100637.84;;;13.87;43.60
54666;BME280;40566;50.006;36.180;2022-09-09T16:27:46;100636.34;;;13.79;44.11
54666;BME280;40566;50.006;36.180;2022-09-09T16:32:47;100645.22;;;13.70;44.18
54666;BME280;40566;50.006;36.180;2022-09-09T16:37:48;100652.28;;;13.66;44.62
54666;BME280;40566;50.006;36.180;2022-09-09T16:42:49;100662.78;;;13.62;45.29
54666;BME280;40566;50.006;36.180;2022-09-09T16:47:50;100662.00;;;13.58;44.94
54666;BME280;40566;50.006;36.180;2022-09-09T16:52:51;100658.88;;;13.45;45.04
54666;BME280;40566;50.006;36.180;2022-09-09T16:57:52;100675.34;;;13.44;45.03
54666;BME280;40566;50.006;36.180;2022-09-09T17:02:54;100691.19;;;13.35;45.30
54666;BME280;40566;50.006;36.180;2022-09-09T17:07:55;100680.91;;;13.29;45.46
54666;BME280;40566;50.006;36.180;2022-09-09T17:13:00;100674.91;;;13.27;45.85
54666;BME280;40566;50.006;36.180;2022-09-09T17:18:02;100690.66;;;13.19;46.42
54666;BME280;40566;50.006;36.180;2022-09-09T17:23:02;100683.88;;;13.14;46.28
54666;BME280;40566;50.006;36.180;2022-09-09T17:28:03;100677.09;;;13.06;46.43
54666;BME280;40566;50.006;36.180;2022-09-09T17:33:04;100681.41;;;13.07;46.11
54666;BME280;40566;50.006;36.180;2022-09-09T17:38:07;100685.84;;;13.02;46.99
54666;BME280;40566;50.006;36.180;2022-09-09T17:43:08;100701.47;;;12.99;46.50
54666;BME280;40566;50.006;36.180;2022-09-09T17:48:09;100705.09;;;12.94;47.00
54666;BME280;40566;50.006;36.180;2022-09-09T17:53:10;100700.81;;;12.91;47.19
54666;BME280;40566;50.006;36.180;2022-09-09T17:58:12;100695.72;;;12.86;46.93
54666;BME280;40566;50.006;36.180;2022-09-09T18:03:13;100703.63;;;12.82;46.92
54666;BME280;40566;50.006;36.180;2022-09-09T18:08:13;100701.16;;;12.76;47.18
54666;BME280;40566;50.006;36.180;2022-09-09T18:13:14;100700.44;;;12.67;47.28
54666;BME280;40566;50.006;36.180;2022-09-09T18:18:15;100699.69;;;12.62;47.43
54666;BME280;40566;50.006;36.180;2022-09-09T18:23:17;100693.88;;;12.51;47.27
54666;BME280;40566;50.006;36.180;2022-09-09T18:28:17;100703.25;;;12.58;47.44
54666;BME280;40566;50.006;36.180;2022-09-09T18:33:20;100716.22;;;12.58;47.01
54666;BME280;40566;50.006;36.180;2022-09-09T18:38:20;100718.06;;;12.53;47.21
54666;BME280;40566;50.006;36.180;2022-09-09T18:43:21;100702.56;;;12.50;47.34
54666;BME280;40566;50.006;36.180;2022-09-09T18:48:21;100716.53;;;12.43;47.26
54666;BME280;40566;50.006;36.180;2022-09-09T18:53:22;100715.03;;;12.31;47.39
54666;BME280;40566;50.006;36.180;2022-09-09T18:58:22;100709.94;;;12.26;47.55
54666;BME280;40566;50.006;36.180;2022-09-09T19:03:25;100722.91;;;12.26;47.74
54666;BME280;40566;50.006;36.180;2022-09-09T19:08:26;100741.16;;;12.20;48.11
54666;BME280;40566;50.006;36.180;2022-09-09T19:13:28;100720.56;;;12.13;48.13
54666;BME280;40566;50.006;36.180;2022-09-09T19:18:28;100731.03;;;12.06;48.74
54666;BME280;40566;50.006;36.180;2022-09-09T19:23:29;100736.38;;;11.99;49.09
54666;BME280;40566;50.006;36.180;2022-09-09T19:28:34;100729.50;;;11.95;48.70
54666;BME280;40566;50.006;36.180;2022-09-09T19:33:35;100734.78;;;11.92;48.89
54666;BME280;40566;50.006;36.180;2022-09-09T19:38:36;100738.22;;;11.90;49.02
54666;BME280;40566;50.006;36.180;2022-09-09T19:43:37;100741.78;;;11.83;49.17
54666;BME280;40566;50.006;36.180;2022-09-09T19:48:39;100737.44;;;11.85;49.12
54666;BME280;40566;50.006;36.180;2022-09-09T19:53:43;100734.03;;;11.82;48.84
54666;BME280;40566;50.006;36.180;2022-09-09T19:58:46;100731.47;;;11.79;49.23
54666;BME280;40566;50.006;36.180;2022-09-09T20:03:48;100737.59;;;11.76;49.10
54666;BME280;40566;50.006;36.180;2022-09-09T20:08:51;100737.69;;;11.70;49.31
54666;BME280;40566;50.006;36.180;2022-09-09T20:13:52;100758.41;;;11.71;49.15
54666;BME280;40566;50.006;36.180;2022-09-09T20:18:56;100756.88;;;11.60;49.90
54666;BME280;40566;50.006;36.180;2022-09-09T20:24:03;100771.50;;;11.61;50.18
54666;BME280;40566;50.006;36.180;2022-09-09T20:29:07;100764.75;;;11.54;49.99
54666;BME280;40566;50.006;36.180;2022-09-09T20:34:19;100769.91;;;11.54;49.51
54666;BME280;40566;50.006;36.180;2022-09-09T20:39:25;100773.38;;;11.51;49.62
54666;BME280;40566;50.006;36.180;2022-09-09T20:44:27;100782.13;;;11.45;49.91
54666;BME280;40566;50.006;36.180;2022-09-09T20:49:28;100785.69;;;11.38;49.89
54666;BME280;40566;50.006;36.180;2022-09-09T20:54:29;100782.38;;;11.27;50.06
54666;BME280;40566;50.006;36.180;2022-09-09T20:59:30;100792.84;;;11.21;50.25
54666;BME280;40566;50.006;36.180;2022-09-09T21:04:30;100795.44;;;11.19;49.99
54666;BME280;40566;50.006;36.180;2022-09-09T21:09:31;100802.34;;;11.19;50.16
54666;BME280;40566;50.006;36.180;2022-09-09T21:14:32;100798.91;;;11.18;50.19
54666;BME280;40566;50.006;36.180;2022-09-09T21:19:32;100800.59;;;11.19;50.54
54666;BME280;40566;50.006;36.180;2022-09-09T21:24:34;100805.88;;;11.15;50.30
54666;BME280;40566;50.006;36.180;2022-09-09T21:29:35;100804.19;;;11.12;50.32
54666;BME280;40566;50.006;36.180;2022-09-09T21:34:36;100805.97;;;11.07;50.17
54666;BME280;40566;50.006;36.180;2022-09-09T21:39:36;100824.16;;;11.02;50.43
54666;BME280;40566;50.006;36.180;2022-09-09T21:44:37;100809.50;;;11.00;50.30
54666;BME280;40566;50.006;36.180;2022-09-09T21:49:37;100826.75;;;11.01;50.77
54666;BME280;40566;50.006;36.180;2022-09-09T21:54:38;100821.59;;;10.98;50.86
54666;BME280;40566;50.006;36.180;2022-09-09T21:59:43;100823.34;;;10.96;50.94
54666;BME280;40566;50.006;36.180;2022-09-09T22:04:44;100822.50;;;10.94;51.03
54666;BME280;40566;50.006;36.180;2022-09-09T22:09:45;100820.81;;;10.93;50.91
54666;BME280;40566;50.006;36.180;2022-09-09T22:14:45;100839.84;;;10.88;51.08
54666;BME280;40566;50.006;36.180;2022-09-09T22:19:46;100843.28;;;10.89;51.21
54666;BME280;40566;50.006;36.180;2022-09-09T22:24:46;100846.72;;;10.88;51.66
54666;BME280;40566;50.006;36.180;2022-09-09T22:29:47;100840.75;;;10.84;51.36
54666;BME280;40566;50.006;36.180;2022-09-09T22:34:47;100845.06;;;10.84;51.49
54666;BME280;40566;50.006;36.180;2022-09-09T22:39:50;100842.44;;;10.87;51.40
54666;BME280;40566;50.006;36.180;2022-09-09T22:44:51;100835.59;;;10.83;51.32
54666;BME280;40566;50.006;36.180;2022-09-09T22:49:51;100831.34;;;10.74;51.52
54666;BME280;40566;50.006;36.180;2022-09-09T22:54:52;100841.75;;;10.73;51.47
54666;BME280;40566;50.006;36.180;2022-09-09T22:59:53;100836.56;;;10.73;51.37
54666;BME280;40566;50.006;36.180;2022-09-09T23:04:53;100840.06;;;10.68;51.45
54666;BME280;40566;50.006;36.180;2022-09-09T23:09:54;100843.50;;;10.70;51.38
54666;BME280;40566;50.006;36.180;2022-09-09T23:14:55;100832.25;;;10.71;51.42
54666;BME280;40566;50.006;36.180;2022-09-09T23:19:56;100827.09;;;10.71;51.71
54666;BME280;40566;50.006;36.180;2022-09-09T23:24:57;100837.44;;;10.71;51.68
54666;BME280;40566;50.006;36.180;2022-09-09T23:29:57;100845.25;;;10.68;51.70
54666;BME280;40566;50.006;36.180;2022-09-09T23:34:58;100851.34;;;10.63;51.91
54666;BME280;40566;50.006;36.180;2022-09-09T23:39:59;100847.88;;;10.62;51.75
54666;BME280;40566;50.006;36.180;2022-09-09T23:44:59;100847.03;;;10.62;51.74
54666;BME280;40566;50.006;36.180;2022-09-09T23:50:00;100846.16;;;10.61;52.06
54666;BME280;40566;50.006;36.180;2022-09-09T23:55:01;100834.06;;;10.63;51.89
